sensor_id;sensor_type;location;lat;lon;timestamp;pressure;altitude;pressure_sealevel;temperature;humidity
13387;BME280;6763;48.524;9.044;2022-11-20T00:01:33;97280.47;;;9.79;54.74
13387;BME280;6763;48.524;9.044;2022-11-20T00:03:58;97275.41;;;9.75;55.21
13387;BME280;6763;48.524;9.044;2022-11-20T00:06:25;97267.75;;;9.70;55.43
13387;BME280;6763;48.524;9.044;2022-11-20T00:08:53;97275.50;;;9.72;55.96
13387;BME280;6763;48.524;9.044;2022-11-20T00:11:21;97277.22;;;9.71;55.48
13387;BME280;6763;48.524;9.044;2022-11-20T00:13:49;97279.91;;;9.67;55.18
13387;BME280;6763;48.524;9.044;2022-11-20T00:16:18;97280.84;;;9.64;55.72
13387;BME280;6763;48.524;9.044;2022-11-20T00:18:44;97280.91;;;9.61;55.33
13387;BME280;6763;48.524;9.044;2022-11-20T00:21:12;97282.63;;;9.61;55.63
13387;BME280;6763;48.524;9.044;2022-11-20T00:23:38;97282.69;;;9.59;55.97
13387;BME280;6763;48.524;9.044;2022-11-20T00:26:04;97272.41;;;9.55;55.95
13387;BME280;6763;48.524;9.044;2022-11-20T00:28:30;97266.50;;;9.51;55.57
13387;BME280;6763;48.524;9.044;2022-11-20T00:31:06;97275.88;;;9.55;55.70
13387;BME280;6763;48.524;9.044;2022-11-20T00:33:33;97282.84;;;9.52;56.18
13387;BME280;6763;48.524;9.044;2022-11-20T00:36:06;97280.28;;;9.52;55.62
13387;BME280;6763;48.524;9.044;2022-11-20T00:38:33;97276.97;;;9.45;55.53
13387;BME280;6763;48.524;9.044;2022-11-20T00:41:03;97288.09;;;9.47;55.63
13387;BME280;6763;48.524;9.044;2022-11-20T00:43:28;97288.19;;;9.44;56.21
13387;BME280;6763;48.524;9.044;2022-11-20T00:46:02;97288.22;;;9.43;55.39
13387;BME280;6763;48.524;9.044;2022-11-20T00:48:28;97298.66;;;9.38;55.80
13387;BME280;6763;48.524;9.044;2022-11-20T00:50:54;97286.66;;;9.34;55.76
13387;BME280;6763;48.524;9.044;2022-11-20T00:53:20;97291.06;;;9.30;56.39
13387;BME280;6763;48.524;9.044;2022-11-20T00:56:19;97302.44;;;9.22;56.39
13387;BME280;6763;48.524;9.044;2022-11-20T00:58:46;97292.09;;;9.22;56.82
13387;BME280;6763;48.524;9.044;2022-11-20T01:01:20;97298.13;;;9.21;56.62
13387;BME280;6763;48.524;9.044;2022-11-20T01:03:48;97312.88;;;9.16;55.71
13387;BME280;6763;48.524;9.044;2022-11-20T01:06:23;97316.47;;;9.09;55.64
13387;BME280;6763;48.524;9.044;2022-11-20T01:08:50;97314.09;;;8.98;55.62
13387;BME280;6763;48.524;9.044;2022-11-20T01:11:18;97310.81;;;8.92;55.36
13387;BME280;6763;48.524;9.044;2022-11-20T01:13:45;97323.00;;;8.84;55.70
13387;BME280;6763;48.524;9.044;2022-11-20T01:16:26;97319.69;;;8.77;56.00
13387;BME280;6763;48.524;9.044;2022-11-20T01:18:53;97325.78;;;8.71;55.67
13387;BME280;6763;48.524;9.044;2022-11-20T01:21:30;97315.56;;;8.67;55.85
13387;BME280;6763;48.524;9.044;2022-11-20T01:23:56;97320.88;;;8.61;56.02
13387;BME280;6763;48.524;9.044;2022-11-20T01:26:25;97323.47;;;8.59;55.77
13387;BME280;6763;48.524;9.044;2022-11-20T01:28:51;97323.53;;;8.55;56.20
13387;BME280;6763;48.524;9.044;2022-11-20T01:31:35;97320.19;;;8.50;56.06
13387;BME280;6763;48.524;9.044;2022-11-20T01:34:04;97328.91;;;8.44;56.76
13387;BME280;6763;48.524;9.044;2022-11-20T01:36:31;97322.91;;;8.42;56.81
13387;BME280;6763;48.524;9.044;2022-11-20T01:38:59;97325.50;;;8.42;57.02
13387;BME280;6763;48.524;9.044;2022-11-20T01:41:27;97323.00;;;8.38;56.94
13387;BME280;6763;48.524;9.044;2022-11-20T01:44:13;97325.59;;;8.36;56.98
13387;BME280;6763;48.524;9.044;2022-11-20T01:46:58;97321.31;;;8.35;56.82
13387;BME280;6763;48.524;9.044;2022-11-20T01:49:40;97313.69;;;8.28;56.92
13387;BME280;6763;48.524;9.044;2022-11-20T01:54:48;97320.72;;;8.20;56.89
13387;BME280;6763;48.524;9.044;2022-11-20T01:57:16;97321.66;;;8.12;56.79
13387;BME280;6763;48.524;9.044;2022-11-20T01:59:45;97317.53;;;8.04;56.65
13387;BME280;6763;48.524;9.044;2022-11-20T02:02:12;97326.09;;;8.04;56.27
13387;BME280;6763;48.524;9.044;2022-11-20T02:04:38;97326.22;;;7.98;56.84
13387;BME280;6763;48.524;9.044;2022-11-20T02:07:07;97329.59;;;8.00;56.58
13387;BME280;6763;48.524;9.044;2022-11-20T02:09:32;97333.03;;;8.01;56.90
13387;BME280;6763;48.524;9.044;2022-11-20T02:11:57;97328.66;;;8.06;56.90
13387;BME280;6763;48.524;9.044;2022-11-20T02:14:24;97329.44;;;8.11;57.08
13387;BME280;6763;48.524;9.044;2022-11-20T02:16:50;97328.44;;;8.20;57.72
13387;BME280;6763;48.524;9.044;2022-11-20T02:19:26;97329.16;;;8.29;57.66
13387;BME280;6763;48.524;9.044;2022-11-20T02:24:18;97323.84;;;8.38;57.38
13387;BME280;6763;48.524;9.044;2022-11-20T02:29:14;97324.59;;;8.43;57.62
13387;BME280;6763;48.524;9.044;2022-11-20T02:31:42;97318.63;;;8.41;57.39
13387;BME280;6763;48.524;9.044;2022-11-20T02:34:09;97321.22;;;8.41;57.46
13387;BME280;6763;48.524;9.044;2022-11-20T02:36:35;97320.44;;;8.38;57.59
13387;BME280;6763;48.524;9.044;2022-11-20T02:39:03;97310.13;;;8.36;57.51
13387;BME280;6763;48.524;9.044;2022-11-20T02:41:36;97312.69;;;8.36;56.78
13387;BME280;6763;48.524;9.044;2022-11-20T02:44:03;97311.94;;;8.31;57.50
13387;BME280;6763;48.524;9.044;2022-11-20T02:46:29;97308.56;;;8.26;56.83
13387;BME280;6763;48.524;9.044;2022-11-20T02:48:54;97306.94;;;8.21;57.20
13387;BME280;6763;48.524;9.044;2022-11-20T02:51:20;97317.28;;;8.18;57.44
13387;BME280;6763;48.524;9.044;2022-11-20T02:53:45;97306.09;;;8.19;57.78
13387;BME280;6763;48.524;9.044;2022-11-20T02:56:10;97301.78;;;8.21;57.74
13387;BME280;6763;48.524;9.044;2022-11-20T02:58:36;97303.50;;;8.20;57.57
13387;BME280;6763;48.524;9.044;2022-11-20T03:01:01;97307.88;;;8.17;57.92
13387;BME280;6763;48.524;9.044;2022-11-20T03:03:26;97305.25;;;8.20;57.52
13387;BME280;6763;48.524;9.044;2022-11-20T03:05:55;97309.56;;;8.18;57.58
13387;BME280;6763;48.524;9.044;2022-11-20T03:08:20;97314.72;;;8.18;57.73
13387;BME280;6763;48.524;9.044;2022-11-20T03:10:45;97309.44;;;8.27;57.98
13387;BME280;6763;48.524;9.044;2022-11-20T03:13:13;97316.91;;;8.42;58.57
13387;BME280;6763;48.524;9.044;2022-11-20T03:15:39;97307.25;;;8.53;58.40
13387;BME280;6763;48.524;9.044;2022-11-20T03:18:04;97307.81;;;8.68;58.95
13387;BME280;6763;48.524;9.044;2022-11-20T03:20:29;97310.16;;;8.81;58.89
13387;BME280;6763;48.524;9.044;2022-11-20T03:22:55;97304.78;;;8.91;58.39
13387;BME280;6763;48.524;9.044;2022-11-20T03:25:21;97296.84;;;9.00;58.56
13387;BME280;6763;48.524;9.044;2022-11-20T03:27:46;97289.84;;;9.05;58.24
13387;BME280;6763;48.524;9.044;2022-11-20T03:30:12;97288.88;;;9.11;58.24
13387;BME280;6763;48.524;9.044;2022-11-20T03:32:37;97287.84;;;9.19;58.65
13387;BME280;6763;48.524;9.044;2022-11-20T03:35:03;97299.66;;;9.31;58.75
13387;BME280;6763;48.524;9.044;2022-11-20T03:37:28;97297.72;;;9.41;58.35
13387;BME280;6763;48.524;9.044;2022-11-20T03:39:54;97292.34;;;9.50;58.30
13387;BME280;6763;48.524;9.044;2022-11-20T03:42:19;97292.16;;;9.57;58.28
13387;BME280;6763;48.524;9.044;2022-11-20T03:45:03;97292.97;;;9.61;58.22
13387;BME280;6763;48.524;9.044;2022-11-20T03:47:29;97295.44;;;9.65;57.73
13387;BME280;6763;48.524;9.044;2022-11-20T03:49:54;97301.34;;;9.70;57.80
13387;BME280;6763;48.524;9.044;2022-11-20T03:52:19;97299.59;;;9.72;57.39
13387;BME280;6763;48.524;9.044;2022-11-20T03:54:45;97303.00;;;9.74;56.96
13387;BME280;6763;48.524;9.044;2022-11-20T03:57:10;97307.16;;;9.80;57.59
13387;BME280;6763;48.524;9.044;2022-11-20T03:59:35;97304.41;;;9.87;57.39
13387;BME280;6763;48.524;9.044;2022-11-20T04:02:01;97306.75;;;9.96;57.12
13387;BME280;6763;48.524;9.044;2022-11-20T04:04:26;97307.47;;;10.03;56.94
13387;BME280;6763;48.524;9.044;2022-11-20T04:06:51;97305.53;;;10.13;56.36
13387;BME280;6763;48.524;9.044;2022-11-20T04:09:17;97308.00;;;10.17;56.17
13387;BME280;6763;48.524;9.044;2022-11-20T04:11:42;97313.88;;;10.24;56.37
13387;BME280;6763;48.524;9.044;2022-11-20T04:14:13;97320.66;;;10.29;55.25
13387;BME280;6763;48.524;9.044;2022-11-20T04:16:39;97310.19;;;10.34;55.78
13387;BME280;6763;48.524;9.044;2022-11-20T04:19:08;97310.91;;;10.39;55.57
13387;BME280;6763;48.524;9.044;2022-11-20T04:21:34;97309.13;;;10.41;55.80
13387;BME280;6763;48.524;9.044;2022-11-20T04:23:59;97305.59;;;10.45;54.94
13387;BME280;6763;48.524;9.044;2022-11-20T04:26:26;97303.72;;;10.50;55.05
13387;BME280;6763;48.524;9.044;2022-11-20T04:28:52;97306.25;;;10.53;54.76
13387;BME280;6763;48.524;9.044;2022-11-20T04:31:22;97299.22;;;10.56;54.71
13387;BME280;6763;48.524;9.044;2022-11-20T04:33:48;97294.84;;;10.58;54.55
13387;BME280;6763;48.524;9.044;2022-11-20T04:36:16;97294.78;;;10.62;54.09
13387;BME280;6763;48.524;9.044;2022-11-20T04:38:42;97296.50;;;10.63;53.87
13387;BME280;6763;48.524;9.044;2022-11-20T04:41:13;97295.59;;;10.64;53.53
13387;BME280;6763;48.524;9.044;2022-11-20T04:43:39;97299.09;;;10.63;53.66
13387;BME280;6763;48.524;9.044;2022-11-20T04:46:04;97292.19;;;10.62;53.20
13387;BME280;6763;48.524;9.044;2022-11-20T04:48:30;97293.84;;;10.64;53.24
13387;BME280;6763;48.524;9.044;2022-11-20T04:50:55;97292.19;;;10.62;53.23
13387;BME280;6763;48.524;9.044;2022-11-20T04:53:22;97297.34;;;10.63;52.62
13387;BME280;6763;48.524;9.044;2022-11-20T04:55:47;97295.41;;;10.71;52.19
13387;BME280;6763;48.524;9.044;2022-11-20T04:58:13;97288.19;;;10.82;51.49
13387;BME280;6763;48.524;9.044;2022-11-20T05:00:39;97283.63;;;10.90;51.40
13387;BME280;6763;48.524;9.044;2022-11-20T05:03:04;97291.25;;;10.96;50.77
13387;BME280;6763;48.524;9.044;2022-11-20T05:05:30;97283.28;;;11.02;49.99
13387;BME280;6763;48.524;9.044;2022-11-20T05:07:56;97288.47;;;11.02;49.74
13387;BME280;6763;48.524;9.044;2022-11-20T05:10:23;97282.25;;;11.09;49.79
13387;BME280;6763;48.524;9.044;2022-11-20T05:12:48;97287.44;;;11.08;49.55
13387;BME280;6763;48.524;9.044;2022-11-20T05:15:14;97286.41;;;11.13;49.19
13387;BME280;6763;48.524;9.044;2022-11-20T05:17:39;97277.91;;;11.10;49.28
13387;BME280;6763;48.524;9.044;2022-11-20T05:20:05;97279.66;;;11.08;48.92
13387;BME280;6763;48.524;9.044;2022-11-20T05:22:30;97286.69;;;11.04;49.35
13387;BME280;6763;48.524;9.044;2022-11-20T05:24:55;97279.72;;;11.06;49.08
13387;BME280;6763;48.524;9.044;2022-11-20T05:27:21;97277.50;;;10.94;49.26
13387;BME280;6763;48.524;9.044;2022-11-20T05:29:49;97283.56;;;10.93;49.53
13387;BME280;6763;48.524;9.044;2022-11-20T05:32:14;97275.63;;;10.99;49.51
13387;BME280;6763;48.524;9.044;2022-11-20T05:34:39;97277.13;;;11.06;48.90
13387;BME280;6763;48.524;9.044;2022-11-20T05:37:05;97274.56;;;11.06;48.72
13387;BME280;6763;48.524;9.044;2022-11-20T05:39:30;97279.16;;;10.97;49.04
13387;BME280;6763;48.524;9.044;2022-11-20T05:41:55;97278.47;;;10.90;49.05
13387;BME280;6763;48.524;9.044;2022-11-20T05:44:39;97283.41;;;10.98;49.05
13387;BME280;6763;48.524;9.044;2022-11-20T05:47:05;97279.97;;;10.97;48.87
13387;BME280;6763;48.524;9.044;2022-11-20T05:49:31;97276.19;;;11.09;48.91
13387;BME280;6763;48.524;9.044;2022-11-20T05:51:56;97284.69;;;11.14;48.31
13387;BME280;6763;48.524;9.044;2022-11-20T05:54:22;97286.28;;;11.18;48.33
13387;BME280;6763;48.524;9.044;2022-11-20T05:56:47;97281.06;;;11.19;48.24
13387;BME280;6763;48.524;9.044;2022-11-20T05:59:12;97277.69;;;11.17;48.02
13387;BME280;6763;48.524;9.044;2022-11-20T06:01:38;97288.94;;;11.16;47.92
13387;BME280;6763;48.524;9.044;2022-11-20T06:04:03;97279.41;;;11.17;48.29
13387;BME280;6763;48.524;9.044;2022-11-20T06:06:29;97280.38;;;11.14;48.39
13387;BME280;6763;48.524;9.044;2022-11-20T06:08:54;97282.25;;;11.09;48.54
13387;BME280;6763;48.524;9.044;2022-11-20T06:11:20;97287.56;;;11.05;48.36
13387;BME280;6763;48.524;9.044;2022-11-20T06:13:45;97284.34;;;10.95;48.93
13387;BME280;6763;48.524;9.044;2022-11-20T06:16:13;97275.94;;;10.87;49.10
13387;BME280;6763;48.524;9.044;2022-11-20T06:18:39;97286.53;;;10.80;48.88
13387;BME280;6763;48.524;9.044;2022-11-20T06:21:08;97274.56;;;10.76;49.24
13387;BME280;6763;48.524;9.044;2022-11-20T06:23:34;97271.19;;;10.74;48.86
13387;BME280;6763;48.524;9.044;2022-11-20T06:26:29;97279.66;;;10.79;48.97
13387;BME280;6763;48.524;9.044;2022-11-20T06:28:55;97276.22;;;10.78;49.14
13387;BME280;6763;48.524;9.044;2022-11-20T06:31:24;97274.56;;;10.76;49.04
13387;BME280;6763;48.524;9.044;2022-11-20T06:33:51;97275.31;;;10.79;48.89
13387;BME280;6763;48.524;9.044;2022-11-20T06:36:19;97276.94;;;10.83;49.05
13387;BME280;6763;48.524;9.044;2022-11-20T06:38:45;97283.91;;;10.81;48.78
13387;BME280;6763;48.524;9.044;2022-11-20T06:41:13;97281.22;;;10.84;48.64
13387;BME280;6763;48.524;9.044;2022-11-20T06:43:38;97281.91;;;10.91;48.41
13387;BME280;6763;48.524;9.044;2022-11-20T06:46:04;97282.75;;;10.91;48.65
13387;BME280;6763;48.524;9.044;2022-11-20T06:48:30;97282.75;;;10.91;48.28
13387;BME280;6763;48.524;9.044;2022-11-20T06:50:56;97288.78;;;10.92;48.93
13387;BME280;6763;48.524;9.044;2022-11-20T06:53:22;97287.00;;;10.94;48.55
13387;BME280;6763;48.524;9.044;2022-11-20T06:55:48;97287.88;;;10.93;48.93
13387;BME280;6763;48.524;9.044;2022-11-20T06:58:15;97288.69;;;10.95;48.72
13387;BME280;6763;48.524;9.044;2022-11-20T07:00:41;97282.63;;;10.96;48.71
13387;BME280;6763;48.524;9.044;2022-11-20T07:03:07;97288.72;;;10.93;48.70
13387;BME280;6763;48.524;9.044;2022-11-20T07:05:34;97291.41;;;10.90;48.44
13387;BME280;6763;48.524;9.044;2022-11-20T07:07:59;97290.44;;;10.94;48.70
13387;BME280;6763;48.524;9.044;2022-11-20T07:10:25;97293.84;;;10.96;48.77
13387;BME280;6763;48.524;9.044;2022-11-20T07:12:54;97289.53;;;10.95;48.42
13387;BME280;6763;48.524;9.044;2022-11-20T07:15:21;97296.28;;;11.01;48.53
13387;BME280;6763;48.524;9.044;2022-11-20T07:17:47;97303.88;;;11.07;48.31
13387;BME280;6763;48.524;9.044;2022-11-20T07:20:13;97302.94;;;11.09;48.90
13387;BME280;6763;48.524;9.044;2022-11-20T07:22:39;97303.63;;;11.16;48.52
13387;BME280;6763;48.524;9.044;2022-11-20T07:25:05;97299.22;;;11.18;48.10
13387;BME280;6763;48.524;9.044;2022-11-20T07:27:31;97302.56;;;11.23;48.36
13387;BME280;6763;48.524;9.044;2022-11-20T07:29:56;97309.28;;;11.29;47.83
13387;BME280;6763;48.524;9.044;2022-11-20T07:32:21;97316.97;;;11.32;47.89
13387;BME280;6763;48.524;9.044;2022-11-20T07:34:47;97310.72;;;11.39;47.87
13387;BME280;6763;48.524;9.044;2022-11-20T07:37:13;97315.78;;;11.43;47.83
13387;BME280;6763;48.524;9.044;2022-11-20T07:39:38;97307.88;;;11.48;47.63
13387;BME280;6763;48.524;9.044;2022-11-20T07:42:06;97312.97;;;11.51;47.54
13387;BME280;6763;48.524;9.044;2022-11-20T07:44:32;97312.88;;;11.54;47.44
13387;BME280;6763;48.524;9.044;2022-11-20T07:46:57;97319.66;;;11.58;47.62
13387;BME280;6763;48.524;9.044;2022-11-20T07:49:23;97306.78;;;11.55;47.97
13387;BME280;6763;48.524;9.044;2022-11-20T07:51:50;97310.84;;;11.63;47.43
13387;BME280;6763;48.524;9.044;2022-11-20T07:54:16;97309.84;;;11.69;46.90
13387;BME280;6763;48.524;9.044;2022-11-20T07:56:41;97312.25;;;11.75;47.40
13387;BME280;6763;48.524;9.044;2022-11-20T07:59:06;97305.19;;;11.80;46.90
13387;BME280;6763;48.524;9.044;2022-11-20T08:01:32;97309.31;;;11.86;46.98
13387;BME280;6763;48.524;9.044;2022-11-20T08:03:57;97317.09;;;11.86;46.79
13387;BME280;6763;48.524;9.044;2022-11-20T08:06:22;97317.78;;;11.91;46.76
13387;BME280;6763;48.524;9.044;2022-11-20T08:08:49;97306.72;;;11.86;47.02
13387;BME280;6763;48.524;9.044;2022-11-20T08:11:15;97304.09;;;11.87;46.78
13387;BME280;6763;48.524;9.044;2022-11-20T08:13:59;97312.81;;;11.85;46.89
13387;BME280;6763;48.524;9.044;2022-11-20T08:16:37;97312.75;;;11.86;46.98
13387;BME280;6763;48.524;9.044;2022-11-20T08:19:02;97319.56;;;11.90;46.98
13387;BME280;6763;48.524;9.044;2022-11-20T08:21:27;97321.28;;;11.90;47.09
13387;BME280;6763;48.524;9.044;2022-11-20T08:23:53;97326.31;;;11.96;46.84
13387;BME280;6763;48.524;9.044;2022-11-20T08:26:18;97340.91;;;11.98;47.14
13387;BME280;6763;48.524;9.044;2022-11-20T08:28:45;97328.69;;;12.02;47.03
13387;BME280;6763;48.524;9.044;2022-11-20T08:31:11;97332.84;;;12.07;46.95
13387;BME280;6763;48.524;9.044;2022-11-20T08:33:36;97335.19;;;12.15;46.82
13387;BME280;6763;48.524;9.044;2022-11-20T08:36:03;97349.53;;;12.26;46.82
13387;BME280;6763;48.524;9.044;2022-11-20T08:38:29;97337.97;;;12.35;46.72
13387;BME280;6763;48.524;9.044;2022-11-20T08:41:03;97340.31;;;12.42;46.96
13387;BME280;6763;48.524;9.044;2022-11-20T08:43:47;97345.50;;;12.42;46.76
13387;BME280;6763;48.524;9.044;2022-11-20T08:46:13;97356.66;;;12.46;46.28
13387;BME280;6763;48.524;9.044;2022-11-20T08:48:39;97363.53;;;12.47;46.91
13387;BME280;6763;48.524;9.044;2022-11-20T08:51:04;97355.78;;;12.45;47.04
13387;BME280;6763;48.524;9.044;2022-11-20T08:53:30;97352.50;;;12.40;47.26
13387;BME280;6763;48.524;9.044;2022-11-20T08:55:56;97353.69;;;12.30;47.55
13387;BME280;6763;48.524;9.044;2022-11-20T08:58:23;97360.69;;;12.28;48.05
13387;BME280;6763;48.524;9.044;2022-11-20T09:00:48;97359.81;;;12.29;47.73
13387;BME280;6763;48.524;9.044;2022-11-20T09:03:14;97351.88;;;12.34;47.73
13387;BME280;6763;48.524;9.044;2022-11-20T09:05:39;97359.06;;;12.24;47.45
13387;BME280;6763;48.524;9.044;2022-11-20T09:08:05;97354.00;;;12.21;48.08
13387;BME280;6763;48.524;9.044;2022-11-20T09:10:30;97355.13;;;12.13;48.08
13387;BME280;6763;48.524;9.044;2022-11-20T09:12:56;97357.66;;;12.16;48.45
13387;BME280;6763;48.524;9.044;2022-11-20T09:15:23;97356.69;;;12.18;48.04
13387;BME280;6763;48.524;9.044;2022-11-20T09:17:52;97354.50;;;12.32;47.54
13387;BME280;6763;48.524;9.044;2022-11-20T09:20:17;97359.41;;;12.41;47.56
13387;BME280;6763;48.524;9.044;2022-11-20T09:22:44;97365.19;;;12.50;47.73
13387;BME280;6763;48.524;9.044;2022-11-20T09:25:09;97363.47;;;12.49;47.69
13387;BME280;6763;48.524;9.044;2022-11-20T09:27:34;97371.25;;;12.49;47.77
13387;BME280;6763;48.524;9.044;2022-11-20T09:30:01;97374.63;;;12.52;47.59
13387;BME280;6763;48.524;9.044;2022-11-20T09:32:26;97368.47;;;12.55;47.50
13387;BME280;6763;48.524;9.044;2022-11-20T09:34:54;97372.81;;;12.54;48.18
13387;BME280;6763;48.524;9.044;2022-11-20T09:37:20;97380.00;;;12.46;48.15
13387;BME280;6763;48.524;9.044;2022-11-20T09:39:45;97372.72;;;12.31;48.72
13387;BME280;6763;48.524;9.044;2022-11-20T09:51:02;97381.31;;;12.05;50.34
13387;BME280;6763;48.524;9.044;2022-11-20T09:53:44;97381.16;;;12.11;50.68
13387;BME280;6763;48.524;9.044;2022-11-20T09:56:11;97377.59;;;12.14;50.32
13387;BME280;6763;48.524;9.044;2022-11-20T09:58:45;97388.78;;;12.16;50.58
13387;BME280;6763;48.524;9.044;2022-11-20T10:01:15;97382.56;;;12.20;50.65
13387;BME280;6763;48.524;9.044;2022-11-20T10:03:53;97384.22;;;12.22;51.09
13387;BME280;6763;48.524;9.044;2022-11-20T10:06:33;97380.50;;;12.31;50.99
13387;BME280;6763;48.524;9.044;2022-11-20T10:09:13;97380.44;;;12.32;50.87
13387;BME280;6763;48.524;9.044;2022-11-20T10:11:48;97376.91;;;12.35;51.24
13387;BME280;6763;48.524;9.044;2022-11-20T10:17:57;97378.28;;;12.45;50.34
13387;BME280;6763;48.524;9.044;2022-11-20T10:21:41;97383.13;;;12.56;50.31
13387;BME280;6763;48.524;9.044;2022-11-20T10:31:26;97377.63;;;12.91;49.72
13387;BME280;6763;48.524;9.044;2022-11-20T10:33:53;97373.97;;;12.96;49.74
13387;BME280;6763;48.524;9.044;2022-11-20T10:36:28;97377.97;;;13.05;49.34
13387;BME280;6763;48.524;9.044;2022-11-20T10:39:04;97370.91;;;13.10;49.41
13387;BME280;6763;48.524;9.044;2022-11-20T10:41:41;97377.59;;;13.17;49.14
13387;BME280;6763;48.524;9.044;2022-11-20T10:44:27;97370.59;;;13.19;48.94
13387;BME280;6763;48.524;9.044;2022-11-20T10:47:17;97375.69;;;13.22;49.18
13387;BME280;6763;48.524;9.044;2022-11-20T10:49:46;97375.34;;;13.31;48.76
13387;BME280;6763;48.524;9.044;2022-11-20T10:58:13;97365.41;;;13.42;48.54
13387;BME280;6763;48.524;9.044;2022-11-20T11:00:39;97367.72;;;13.50;48.60
13387;BME280;6763;48.524;9.044;2022-11-20T11:03:20;97366.38;;;13.63;48.39
13387;BME280;6763;48.524;9.044;2022-11-20T11:08:39;97351.72;;;13.84;46.99
13387;BME280;6763;48.524;9.044;2022-11-20T11:11:19;97349.78;;;13.89;47.14
13387;BME280;6763;48.524;9.044;2022-11-20T11:13:45;97347.13;;;14.12;46.74
13387;BME280;6763;48.524;9.044;2022-11-20T11:16:48;97345.25;;;14.15;46.27
13387;BME280;6763;48.524;9.044;2022-11-20T11:19:14;97336.66;;;14.35;45.93
13387;BME280;6763;48.524;9.044;2022-11-20T11:21:47;97336.09;;;14.49;45.51
13387;BME280;6763;48.524;9.044;2022-11-20T11:24:24;97335.72;;;14.58;44.92
13387;BME280;6763;48.524;9.044;2022-11-20T11:26:52;97324.34;;;14.80;44.42
13387;BME280;6763;48.524;9.044;2022-11-20T11:29:18;97330.00;;;14.90;43.56
13387;BME280;6763;48.524;9.044;2022-11-20T11:31:44;97308.66;;;15.21;42.47
13387;BME280;6763;48.524;9.044;2022-11-20T11:34:16;97284.88;;;15.47;41.21
13387;BME280;6763;48.524;9.044;2022-11-20T11:36:42;97316.31;;;15.63;39.85
13387;BME280;6763;48.524;9.044;2022-11-20T11:39:15;97300.53;;;15.66;39.70
13387;BME280;6763;48.524;9.044;2022-11-20T11:41:42;97297.22;;;15.62;39.49
13387;BME280;6763;48.524;9.044;2022-11-20T11:44:24;97312.34;;;15.35;39.56
13387;BME280;6763;48.524;9.044;2022-11-20T11:47:23;97304.13;;;15.06;40.33
13387;BME280;6763;48.524;9.044;2022-11-20T11:50:13;97298.91;;;15.06;40.43
13387;BME280;6763;48.524;9.044;2022-11-20T11:52:45;97299.69;;;15.08;39.99
13387;BME280;6763;48.524;9.044;2022-11-20T11:55:27;97296.53;;;14.81;40.51
13387;BME280;6763;48.524;9.044;2022-11-20T11:58:02;97283.81;;;14.73;40.63
13387;BME280;6763;48.524;9.044;2022-11-20T12:00:33;97288.78;;;14.59;40.88
13387;BME280;6763;48.524;9.044;2022-11-20T12:03:13;97288.19;;;14.53;41.71
13387;BME280;6763;48.524;9.044;2022-11-20T12:05:51;97288.38;;;14.48;41.76
13387;BME280;6763;48.524;9.044;2022-11-20T12:11:06;97287.19;;;14.55;41.77
13387;BME280;6763;48.524;9.044;2022-11-20T12:14:04;97280.84;;;14.62;41.57
13387;BME280;6763;48.524;9.044;2022-11-20T12:16:30;97283.44;;;14.62;41.80
13387;BME280;6763;48.524;9.044;2022-11-20T12:18:59;97280.56;;;14.48;41.87
13387;BME280;6763;48.524;9.044;2022-11-20T12:29:53;97293.00;;;14.62;41.46
13387;BME280;6763;48.524;9.044;2022-11-20T12:32:36;97283.13;;;14.50;40.45
13387;BME280;6763;48.524;9.044;2022-11-20T12:38:15;97271.28;;;14.63;39.41
13387;BME280;6763;48.524;9.044;2022-11-20T12:43:26;97268.94;;;14.96;38.44
13387;BME280;6763;48.524;9.044;2022-11-20T12:49:04;97260.75;;;15.79;37.86
13387;BME280;6763;48.524;9.044;2022-11-20T12:57:09;97263.44;;;17.15;35.27
13387;BME280;6763;48.524;9.044;2022-11-20T13:05:20;97269.97;;;15.86;37.26
13387;BME280;6763;48.524;9.044;2022-11-20T13:07:52;97275.47;;;15.80;37.87
13387;BME280;6763;48.524;9.044;2022-11-20T13:10:34;97267.34;;;15.69;37.72
13387;BME280;6763;48.524;9.044;2022-11-20T13:13:28;97274.00;;;15.37;38.39
13387;BME280;6763;48.524;9.044;2022-11-20T13:16:08;97278.13;;;15.04;39.14
13387;BME280;6763;48.524;9.044;2022-11-20T13:18:39;97272.94;;;14.84;39.54
13387;BME280;6763;48.524;9.044;2022-11-20T13:23:40;97272.44;;;14.56;40.41
13387;BME280;6763;48.524;9.044;2022-11-20T13:26:15;97261.66;;;14.45;40.72
13387;BME280;6763;48.524;9.044;2022-11-20T13:28:41;97269.69;;;14.17;40.28
13387;BME280;6763;48.524;9.044;2022-11-20T13:31:30;97258.88;;;14.06;39.73
13387;BME280;6763;48.524;9.044;2022-11-20T13:33:57;97256.66;;;13.97;39.86
13387;BME280;6763;48.524;9.044;2022-11-20T13:36:25;97248.22;;;14.12;39.09
13387;BME280;6763;48.524;9.044;2022-11-20T13:38:55;97233.34;;;14.76;37.63
13387;BME280;6763;48.524;9.044;2022-11-20T13:41:33;97228.53;;;15.62;36.17
13387;BME280;6763;48.524;9.044;2022-11-20T13:44:14;97233.09;;;15.75;35.52
13387;BME280;6763;48.524;9.044;2022-11-20T13:46:42;97229.06;;;15.51;35.94
13387;BME280;6763;48.524;9.044;2022-11-20T13:49:16;97216.63;;;15.19;36.80
13387;BME280;6763;48.524;9.044;2022-11-20T13:51:46;97225.03;;;14.86;37.77
13387;BME280;6763;48.524;9.044;2022-11-20T13:57:39;97220.56;;;14.09;40.03
13387;BME280;6763;48.524;9.044;2022-11-20T14:00:12;97220.16;;;13.98;40.05
13387;BME280;6763;48.524;9.044;2022-11-20T14:02:41;97217.88;;;13.91;40.63
13387;BME280;6763;48.524;9.044;2022-11-20T14:05:18;97223.28;;;13.86;40.83
13387;BME280;6763;48.524;9.044;2022-11-20T14:07:45;97208.63;;;13.84;40.93
13387;BME280;6763;48.524;9.044;2022-11-20T14:10:40;97203.63;;;13.79;40.89
13387;BME280;6763;48.524;9.044;2022-11-20T14:13:19;97207.19;;;13.77;41.38
13387;BME280;6763;48.524;9.044;2022-11-20T14:15:45;97211.56;;;13.76;41.28
13387;BME280;6763;48.524;9.044;2022-11-20T14:18:19;97211.88;;;13.68;41.49
13387;BME280;6763;48.524;9.044;2022-11-20T14:20:46;97219.22;;;13.57;41.55
13387;BME280;6763;48.524;9.044;2022-11-20T14:23:11;97213.03;;;13.61;41.82
13387;BME280;6763;48.524;9.044;2022-11-20T14:25:42;97211.91;;;13.67;42.03
13387;BME280;6763;48.524;9.044;2022-11-20T14:28:24;97210.03;;;13.71;41.78
13387;BME280;6763;48.524;9.044;2022-11-20T14:30:50;97209.16;;;13.72;41.70
13387;BME280;6763;48.524;9.044;2022-11-20T14:33:16;97209.16;;;13.72;42.43
13387;BME280;6763;48.524;9.044;2022-11-20T14:35:47;97206.78;;;13.65;42.81
13387;BME280;6763;48.524;9.044;2022-11-20T14:38:16;97206.31;;;13.56;43.02
13387;BME280;6763;48.524;9.044;2022-11-20T14:40:42;97207.44;;;13.49;42.94